San Javier, Bolivia
Current Conditions -  °F | °C
As of 5:00 PM on Tuesday 21 Oct 2014 (Local Time) from SLSI Reporting Station
Few Clouds Few Clouds  
Wind Chill: 86°   Ceiling: Unl
Heat Index: 92°   Visibility: 6mi
Dew Point: 72°   Wind: 0mph
Humidity: 62%   Direction: NA
Pressure: 29.85"   Gusts: NA
Location:  16.27°S, 62.47°W
Report Text: SLSI 212100Z 00000KT 9999 FEW020 30/22 Q1011
Loading
Personal Weather Stations






























Interactive Weather Map
Tropical Storm Tracking
New forecast layout! Learn more

10-Day Weather Forecast

Advertisements
Track Severe Weather on mobile